Time;durP1;ratioP1;P1;durP2;ratioP2;P2;SDS_P1;SDS_P2;PMS_P1;PMS_P2;Temp;Humidity;BMP_temperature;BMP_pressure;BME280_temperature;BME280_humidity;BME280_pressure;Samples;Min_cycle;Max_cycle;Signal;HPM_P1;HPM_P2
2022/05/07 00:00:22;;;;;;;10.30;7.00;;;;;;;;;;5033246;28;20553;-64
2022/05/07 00:02:48;;;;;;;11.37;7.50;;;;;;;;;;5033407;28;20199;-64
2022/05/07 00:05:14;;;;;;;9.13;7.00;;;;;;;;;;5033480;28;20658;-64
2022/05/07 00:07:40;;;;;;;9.93;7.17;;;;;;;;;;5033656;28;20183;-64
2022/05/07 00:10:06;;;;;;;9.20;6.80;;;;;;;;;;5015425;28;20179;-64
2022/05/07 00:12:32;;;;;;;9.40;6.50;;;;;;;;;;5033077;28;20210;-65
2022/05/07 00:14:58;;;;;;;10.13;6.50;;;;;;;;;;5015451;28;20552;-65
2022/05/07 00:20:09;;;;;;;12.63;7.77;;;;;;;;;;5033243;28;20178;-64
2022/05/07 00:22:35;;;;;;;9.70;7.43;;;;;;;;;;5032952;28;20199;-64
2022/05/07 00:25:02;;;;;;;14.37;8.80;;;;;;;;;;5015349;28;20254;-68
2022/05/07 00:27:28;;;;;;;9.20;7.00;;;;;;;;;;5015336;28;20559;-64
2022/05/07 00:29:53;;;;;;;10.77;7.33;;;;;;;;;;5033261;28;20230;-65
2022/05/07 00:32:19;;;;;;;11.20;7.57;;;;;;;;;;5032868;28;20252;-65
2022/05/07 00:34:45;;;;;;;9.20;7.30;;;;;;;;;;5033607;28;20214;-65
2022/05/07 00:37:11;;;;;;;14.53;8.53;;;;;;;;;;5019133;28;20214;-65
2022/05/07 00:39:37;;;;;;;11.17;7.67;;;;;;;;;;5036986;28;20206;-64
2022/05/07 00:42:04;;;;;;;10.57;8.13;;;;;;;;;;5036807;28;20595;-65
2022/05/07 00:44:30;;;;;;;23.60;13.23;;;;;;;;;;5037131;28;20211;-64
2022/05/07 00:46:59;;;;;;;23.00;12.07;;;;;;;;;;5019097;28;20218;-65
2022/05/07 00:49:25;;;;;;;45.33;19.83;;;;;;;;;;5037103;28;20178;-65
2022/05/07 00:51:51;;;;;;;40.07;18.47;;;;;;;;;;5036559;28;20198;-66
2022/05/07 00:54:17;;;;;;;59.17;25.57;;;;;;;;;;5036706;28;20653;-65
2022/05/07 00:56:43;;;;;;;28.30;12.30;;;;;;;;;;5019021;28;20273;-65
2022/05/07 00:59:09;;;;;;;21.57;11.60;;;;;;;;;;5018864;28;20182;-65
2022/05/07 01:01:35;;;;;;;22.13;12.00;;;;;;;;;;5036400;28;20186;-65
2022/05/07 01:04:01;;;;;;;30.73;14.30;;;;;;;;;;5036536;28;20171;-65
2022/05/07 01:06:28;;;;;;;24.67;13.77;;;;;;;;;;5018975;28;20182;-65
2022/05/07 01:08:54;;;;;;;27.90;13.40;;;;;;;;;;5036657;28;20233;-65
2022/05/07 01:11:20;;;;;;;32.47;15.17;;;;;;;;;;5036353;28;20558;-65
2022/05/07 01:13:47;;;;;;;23.70;13.17;;;;;;;;;;5036162;28;20287;-65
2022/05/07 01:16:13;;;;;;;20.10;12.47;;;;;;;;;;5036662;28;20176;-65
2022/05/07 01:18:40;;;;;;;25.30;13.13;;;;;;;;;;5036179;28;20186;-65
2022/05/07 01:21:13;;;;;;;26.77;13.57;;;;;;;;;;5036388;28;20643;-65
2022/05/07 01:23:40;;;;;;;23.53;12.53;;;;;;;;;;5036182;28;20195;-64
2022/05/07 01:26:06;;;;;;;25.23;14.90;;;;;;;;;;5018653;28;20206;-65
2022/05/07 01:28:32;;;;;;;20.97;14.03;;;;;;;;;;5036651;28;20179;-66
2022/05/07 01:30:58;;;;;;;20.07;12.60;;;;;;;;;;5037100;28;20549;-65
2022/05/07 01:33:24;;;;;;;27.53;14.43;;;;;;;;;;5036628;28;20298;-64
2022/05/07 01:35:50;;;;;;;22.80;13.10;;;;;;;;;;5019269;28;20265;-64
2022/05/07 01:38:16;;;;;;;20.47;13.17;;;;;;;;;;5036924;28;20175;-64
2022/05/07 01:40:42;;;;;;;18.93;13.07;;;;;;;;;;5036497;28;20176;-63
2022/05/07 01:43:08;;;;;;;18.17;12.17;;;;;;;;;;5036649;28;20551;-65
2022/05/07 01:45:34;;;;;;;19.87;12.20;;;;;;;;;;5035949;28;20206;-65
2022/05/07 01:48:09;;;;;;;19.90;12.73;;;;;;;;;;5017478;28;20211;-65
2022/05/07 01:50:37;;;;;;;18.63;11.87;;;;;;;;;;5035830;28;20163;-65
2022/05/07 01:53:03;;;;;;;21.13;13.20;;;;;;;;;;5035640;28;20207;-65
2022/05/07 01:55:29;;;;;;;20.77;12.87;;;;;;;;;;5035985;28;20574;-65
2022/05/07 01:57:55;;;;;;;18.10;12.43;;;;;;;;;;5017834;28;20187;-65
2022/05/07 02:00:21;;;;;;;16.40;11.90;;;;;;;;;;5035357;28;20179;-65
2022/05/07 02:02:47;;;;;;;16.90;11.07;;;;;;;;;;5035428;28;20204;-65
2022/05/07 02:05:12;;;;;;;20.27;12.90;;;;;;;;;;5035274;28;20183;-65
2022/05/07 02:07:38;;;;;;;17.70;11.83;;;;;;;;;;5035725;28;20655;-65
2022/05/07 02:10:05;;;;;;;21.30;12.30;;;;;;;;;;5017387;28;20577;-65
2022/05/07 02:12:31;;;;;;;18.10;11.70;;;;;;;;;;5035271;28;20210;-65
2022/05/07 02:14:56;;;;;;;17.40;12.10;;;;;;;;;;5035476;28;20179;-64
2022/05/07 02:17:22;;;;;;;16.23;11.93;;;;;;;;;;5035226;28;20185;-64
2022/05/07 02:19:48;;;;;;;18.70;11.57;;;;;;;;;;5035330;28;20183;-65
2022/05/07 02:22:14;;;;;;;16.47;11.30;;;;;;;;;;5035270;28;20199;-65
2022/05/07 02:24:40;;;;;;;17.77;10.47;;;;;;;;;;5035533;28;20176;-65
2022/05/07 02:27:06;;;;;;;14.67;11.03;;;;;;;;;;5034995;28;20176;-65
2022/05/07 02:29:32;;;;;;;19.43;12.57;;;;;;;;;;5017387;28;20175;-65
2022/05/07 02:32:05;;;;;;;14.87;10.77;;;;;;;;;;5017606;28;20203;-64
2022/05/07 02:34:34;;;;;;;15.30;11.40;;;;;;;;;;5017409;28;20636;-65
2022/05/07 02:37:00;;;;;;;13.93;10.93;;;;;;;;;;5035096;28;20175;-65
2022/05/07 02:39:26;;;;;;;17.27;11.73;;;;;;;;;;5016977;28;20205;-65
2022/05/07 02:44:38;;;;;;;13.93;11.17;;;;;;;;;;5034679;28;20518;-65
2022/05/07 02:47:04;;;;;;;16.97;12.27;;;;;;;;;;5034394;28;20666;-65
2022/05/07 02:49:30;;;;;;;15.27;11.47;;;;;;;;;;5016840;28;20182;-65
2022/05/07 02:51:56;;;;;;;14.67;11.60;;;;;;;;;;5034430;28;20211;-64
2022/05/07 02:54:22;;;;;;;19.10;12.10;;;;;;;;;;5034859;28;20195;-65
2022/05/07 02:56:48;;;;;;;16.90;11.70;;;;;;;;;;5034735;28;20256;-65
2022/05/07 02:59:14;;;;;;;17.13;12.10;;;;;;;;;;5033469;28;20187;-64
2022/05/07 03:01:41;;;;;;;17.67;12.30;;;;;;;;;;5034213;28;20175;-65
2022/05/07 03:04:08;;;;;;;15.93;12.20;;;;;;;;;;5016500;28;20183;-65
2022/05/07 03:06:34;;;;;;;15.50;11.70;;;;;;;;;;5034480;28;20644;-66
2022/05/07 03:09:00;;;;;;;16.80;11.77;;;;;;;;;;5034631;28;20253;-65
2022/05/07 03:11:26;;;;;;;15.73;12.30;;;;;;;;;;5034738;28;20631;-66
2022/05/07 03:13:52;;;;;;;17.53;11.90;;;;;;;;;;5016209;28;20209;-65
2022/05/07 03:16:18;;;;;;;16.70;12.53;;;;;;;;;;5016414;28;20267;-65
2022/05/07 03:18:44;;;;;;;19.00;12.13;;;;;;;;;;5034220;28;20198;-65
2022/05/07 03:21:10;;;;;;;16.87;11.83;;;;;;;;;;5034022;28;20176;-65
2022/05/07 03:23:36;;;;;;;19.17;12.57;;;;;;;;;;5034181;28;20209;-65
2022/05/07 03:26:02;;;;;;;16.10;11.87;;;;;;;;;;5034200;28;20178;-66
2022/05/07 03:28:28;;;;;;;18.17;12.67;;;;;;;;;;5034151;28;20186;-66
2022/05/07 03:30:54;;;;;;;20.80;12.93;;;;;;;;;;5016082;28;20186;-64
2022/05/07 03:33:20;;;;;;;17.33;12.57;;;;;;;;;;5033670;28;20245;-66
2022/05/07 03:35:47;;;;;;;19.50;12.83;;;;;;;;;;5033599;28;20183;-66
2022/05/07 03:38:13;;;;;;;18.10;13.47;;;;;;;;;;5015843;28;20171;-64
2022/05/07 03:40:39;;;;;;;21.00;12.80;;;;;;;;;;5033499;28;20183;-66
2022/05/07 03:43:05;;;;;;;18.13;12.63;;;;;;;;;;5015656;28;20207;-66
2022/05/07 03:45:32;;;;;;;20.10;13.43;;;;;;;;;;5033502;28;20262;-66
2022/05/07 03:47:59;;;;;;;20.10;13.43;;;;;;;;;;5015718;28;20297;-65
2022/05/07 03:50:25;;;;;;;18.53;12.80;;;;;;;;;;5015750;28;20270;-65
2022/05/07 03:55:41;;;;;;;18.57;13.57;;;;;;;;;;5033601;28;20571;-66
2022/05/07 03:58:11;;;;;;;21.13;13.37;;;;;;;;;;5033811;28;20159;-65
2022/05/07 04:00:40;;;;;;;17.67;13.00;;;;;;;;;;5033799;28;20171;-66
2022/05/07 04:03:06;;;;;;;20.30;13.60;;;;;;;;;;5033136;28;20195;-66
2022/05/07 04:05:32;;;;;;;22.80;15.60;;;;;;;;;;5033610;28;20258;-66
2022/05/07 04:07:58;;;;;;;33.83;18.50;;;;;;;;;;5033196;28;20229;-65
2022/05/07 04:10:24;;;;;;;48.60;20.40;;;;;;;;;;5017575;28;20187;-66
2022/05/07 04:12:51;;;;;;;44.83;20.87;;;;;;;;;;5037260;28;20260;-66
2022/05/07 04:17:54;;;;;;;31.23;16.20;;;;;;;;;;5056276;28;20213;-67
2022/05/07 04:20:20;;;;;;;32.20;17.93;;;;;;;;;;5057942;28;20592;-67
2022/05/07 04:22:46;;;;;;;25.67;15.80;;;;;;;;;;5058004;28;20189;-67
2022/05/07 04:25:13;;;;;;;23.27;14.30;;;;;;;;;;5055775;28;20562;-68
2022/05/07 04:27:39;;;;;;;28.47;15.87;;;;;;;;;;5057031;28;20190;-67
2022/05/07 04:30:05;;;;;;;19.67;13.73;;;;;;;;;;5056901;28;20189;-67
2022/05/07 04:32:31;;;;;;;21.70;14.03;;;;;;;;;;5056796;28;20199;-67
2022/05/07 04:34:57;;;;;;;22.70;13.63;;;;;;;;;;5056876;28;20568;-67
2022/05/07 04:37:24;;;;;;;20.87;14.30;;;;;;;;;;5038798;28;20198;-67
2022/05/07 04:39:50;;;;;;;19.40;14.47;;;;;;;;;;5056723;28;20261;-68
2022/05/07 04:42:16;;;;;;;31.23;16.90;;;;;;;;;;5056739;28;20210;-68
2022/05/07 04:44:42;;;;;;;43.43;18.13;;;;;;;;;;5056838;28;20232;-67
2022/05/07 04:47:08;;;;;;;44.30;20.67;;;;;;;;;;5038754;28;20200;-67
2022/05/07 04:49:35;;;;;;;48.07;21.13;;;;;;;;;;5038568;28;20186;-67
2022/05/07 04:52:01;;;;;;;33.70;18.57;;;;;;;;;;5038562;28;20186;-67
2022/05/07 04:54:27;;;;;;;32.23;17.23;;;;;;;;;;5038409;28;20210;-67
2022/05/07 04:56:53;;;;;;;48.17;21.20;;;;;;;;;;5056787;28;20573;-67
2022/05/07 04:59:20;;;;;;;36.43;19.37;;;;;;;;;;5056373;28;20194;-67
2022/05/07 05:01:46;;;;;;;36.47;20.63;;;;;;;;;;5056628;28;20544;-67
2022/05/07 05:04:12;;;;;;;30.83;19.87;;;;;;;;;;5056251;28;20554;-67
2022/05/07 05:06:38;;;;;;;28.23;17.27;;;;;;;;;;5056397;28;20205;-67
2022/05/07 05:09:05;;;;;;;29.13;18.80;;;;;;;;;;5056170;28;20210;-67
2022/05/07 05:11:31;;;;;;;26.83;16.97;;;;;;;;;;5056173;28;20531;-67
2022/05/07 05:13:57;;;;;;;24.30;17.03;;;;;;;;;;5056005;28;20213;-67
2022/05/07 05:16:23;;;;;;;23.63;17.20;;;;;;;;;;5038331;28;20214;-67
2022/05/07 05:18:50;;;;;;;22.60;17.87;;;;;;;;;;5056009;28;20178;-67
2022/05/07 05:21:16;;;;;;;26.00;18.67;;;;;;;;;;5036987;28;20177;-67
2022/05/07 05:23:42;;;;;;;23.87;17.77;;;;;;;;;;5038023;28;20289;-67
2022/05/07 05:26:08;;;;;;;22.13;16.67;;;;;;;;;;5038034;28;20202;-67
2022/05/07 05:28:37;;;;;;;24.10;16.73;;;;;;;;;;5037933;28;20228;-67
2022/05/07 05:31:03;;;;;;;22.90;17.23;;;;;;;;;;5055834;28;20281;-67
2022/05/07 05:33:29;;;;;;;22.97;15.73;;;;;;;;;;5055664;28;20206;-68
2022/05/07 05:35:55;;;;;;;23.83;16.40;;;;;;;;;;5037762;28;20617;-68
2022/05/07 05:38:21;;;;;;;21.27;16.80;;;;;;;;;;5055673;28;20175;-67
2022/05/07 05:40:47;;;;;;;21.70;16.27;;;;;;;;;;5055947;28;20185;-67
2022/05/07 05:43:13;;;;;;;21.80;16.10;;;;;;;;;;5055486;28;20178;-67
2022/05/07 05:45:39;;;;;;;23.00;16.37;;;;;;;;;;5055645;28;20202;-67
2022/05/07 05:48:05;;;;;;;21.80;16.93;;;;;;;;;;5055506;28;20205;-67
2022/05/07 05:50:31;;;;;;;22.87;17.20;;;;;;;;;;5055445;28;20179;-67
2022/05/07 05:52:58;;;;;;;25.57;17.50;;;;;;;;;;5037425;28;20293;-67
2022/05/07 05:55:24;;;;;;;24.43;16.93;;;;;;;;;;5055128;28;20183;-67
2022/05/07 05:57:50;;;;;;;26.80;18.60;;;;;;;;;;5055149;28;20170;-67
2022/05/07 06:00:16;;;;;;;28.33;17.97;;;;;;;;;;5055465;28;20174;-67
2022/05/07 06:02:44;;;;;;;26.53;19.63;;;;;;;;;;5037342;28;20186;-67
2022/05/07 06:05:10;;;;;;;27.27;18.40;;;;;;;;;;5037447;28;20183;-67
2022/05/07 06:07:36;;;;;;;27.53;20.03;;;;;;;;;;5055039;28;20198;-67
2022/05/07 06:10:02;;;;;;;25.97;18.87;;;;;;;;;;5055337;28;20518;-68
2022/05/07 06:12:28;;;;;;;24.70;18.17;;;;;;;;;;5037007;28;20739;-67
2022/05/07 06:14:54;;;;;;;22.90;17.43;;;;;;;;;;5054841;28;20186;-67
2022/05/07 06:17:20;;;;;;;22.00;17.83;;;;;;;;;;5054704;28;20206;-67
2022/05/07 06:19:46;;;;;;;24.63;17.90;;;;;;;;;;5055189;28;20205;-67
2022/05/07 06:22:12;;;;;;;24.57;16.93;;;;;;;;;;5036938;28;20573;-67
2022/05/07 06:27:28;;;;;;;23.57;17.03;;;;;;;;;;5054880;28;20207;-68
2022/05/07 06:29:57;;;;;;;23.90;17.13;;;;;;;;;;5054930;28;20197;-67
2022/05/07 06:32:24;;;;;;;22.57;17.00;;;;;;;;;;5054659;28;20174;-67
2022/05/07 06:34:50;;;;;;;21.73;16.60;;;;;;;;;;5054784;28;20236;-67
2022/05/07 06:37:15;;;;;;;24.37;17.77;;;;;;;;;;5054464;28;20191;-68
2022/05/07 06:39:41;;;;;;;27.47;18.20;;;;;;;;;;5036746;28;20232;-67
2022/05/07 06:42:08;;;;;;;24.93;18.03;;;;;;;;;;5036615;28;20273;-67
2022/05/07 06:44:34;;;;;;;28.20;19.23;;;;;;;;;;5036592;28;20712;-68
2022/05/07 06:47:00;;;;;;;23.37;18.13;;;;;;;;;;5054324;28;20206;-65
2022/05/07 06:49:26;;;;;;;21.53;17.03;;;;;;;;;;5036637;28;20192;-67
2022/05/07 06:51:52;;;;;;;24.73;16.83;;;;;;;;;;5054489;28;20178;-67
2022/05/07 06:54:18;;;;;;;21.80;17.80;;;;;;;;;;5054284;28;20201;-67
2022/05/07 06:56:44;;;;;;;25.40;17.83;;;;;;;;;;5054340;28;20237;-67
2022/05/07 06:59:11;;;;;;;23.63;16.90;;;;;;;;;;5036242;28;20186;-67
2022/05/07 07:01:37;;;;;;;25.43;17.23;;;;;;;;;;5054129;28;20170;-67
2022/05/07 07:04:03;;;;;;;22.70;15.47;;;;;;;;;;5053964;28;20190;-67
2022/05/07 07:06:30;;;;;;;19.27;14.77;;;;;;;;;;5054241;28;20600;-67
2022/05/07 07:08:56;;;;;;;22.03;15.27;;;;;;;;;;5054161;28;20547;-67
2022/05/07 07:11:22;;;;;;;20.53;15.97;;;;;;;;;;5036072;28;20182;-67
2022/05/07 07:13:49;;;;;;;24.30;15.97;;;;;;;;;;5036012;28;20570;-67
2022/05/07 07:16:15;;;;;;;19.10;15.33;;;;;;;;;;5053857;28;20596;-67
2022/05/07 07:18:41;;;;;;;21.77;16.97;;;;;;;;;;5036152;28;20213;-65
2022/05/07 07:21:07;;;;;;;19.60;15.23;;;;;;;;;;5036527;28;20222;-65
2022/05/07 07:23:33;;;;;;;24.57;17.23;;;;;;;;;;5054342;28;20181;-65
2022/05/07 07:25:59;;;;;;;26.97;17.37;;;;;;;;;;5036230;28;20344;-65
2022/05/07 07:28:25;;;;;;;22.70;16.20;;;;;;;;;;5054741;28;20224;-65
2022/05/07 07:30:51;;;;;;;23.70;15.77;;;;;;;;;;5037404;28;20244;-66
2022/05/07 07:33:17;;;;;;;21.40;15.70;;;;;;;;;;5055174;28;20576;-65
2022/05/07 07:35:46;;;;;;;23.23;16.00;;;;;;;;;;5055859;28;20190;-65
2022/05/07 07:38:12;;;;;;;20.63;16.17;;;;;;;;;;5036690;28;20203;-66
2022/05/07 07:40:39;;;;;;;19.60;16.00;;;;;;;;;;5054564;28;20178;-66
2022/05/07 07:43:05;;;;;;;22.03;16.13;;;;;;;;;;5036145;28;20562;-66
2022/05/07 07:48:16;;;;;;;20.37;14.47;;;;;;;;;;5053719;28;20642;-66
2022/05/07 07:50:44;;;;;;;20.47;15.87;;;;;;;;;;5053403;28;20179;-66
2022/05/07 07:53:11;;;;;;;21.17;15.07;;;;;;;;;;5035381;28;20605;-66
2022/05/07 07:55:37;;;;;;;20.23;13.77;;;;;;;;;;5053353;28;20254;-65
2022/05/07 07:58:05;;;;;;;19.57;14.30;;;;;;;;;;5053589;28;20178;-66
2022/05/07 08:00:31;;;;;;;19.83;14.40;;;;;;;;;;5053412;28;20248;-65
2022/05/07 08:02:58;;;;;;;22.00;14.57;;;;;;;;;;5053199;28;20182;-66
2022/05/07 08:05:25;;;;;;;19.57;13.83;;;;;;;;;;5053107;28;20182;-66
2022/05/07 08:13:21;;;;;;;23.67;13.87;;;;;;;;;;5053368;28;20337;-65
2022/05/07 08:15:47;;;;;;;17.60;13.57;;;;;;;;;;5034924;28;20274;-66
2022/05/07 08:18:13;;;;;;;17.83;12.43;;;;;;;;;;5035027;28;20171;-66
2022/05/07 08:20:41;;;;;;;18.63;14.07;;;;;;;;;;5052800;28;20175;-66
2022/05/07 08:23:07;;;;;;;17.67;13.07;;;;;;;;;;5034942;28;20264;-66
2022/05/07 08:25:33;;;;;;;16.77;12.40;;;;;;;;;;5034977;28;20189;-66
2022/05/07 08:27:59;;;;;;;18.43;12.53;;;;;;;;;;5053007;28;20178;-65
2022/05/07 08:30:26;;;;;;;18.33;12.53;;;;;;;;;;5035208;28;20188;-65
2022/05/07 08:32:52;;;;;;;17.10;12.63;;;;;;;;;;5035030;28;20646;-65
2022/05/07 08:35:18;;;;;;;23.30;13.47;;;;;;;;;;5052872;28;20179;-66
2022/05/07 08:37:44;;;;;;;17.03;12.43;;;;;;;;;;5052704;28;20259;-67
2022/05/07 08:40:14;;;;;;;17.80;12.10;;;;;;;;;;5053123;28;20171;-66
2022/05/07 08:42:40;;;;;;;17.93;12.60;;;;;;;;;;5053290;28;20178;-65
2022/05/07 08:45:06;;;;;;;18.27;12.13;;;;;;;;;;5052774;28;20244;-67
2022/05/07 08:47:32;;;;;;;17.77;12.23;;;;;;;;;;5034573;28;20206;-66
2022/05/07 08:49:58;;;;;;;16.87;12.43;;;;;;;;;;5052976;28;20179;-66
2022/05/07 08:52:26;;;;;;;17.40;12.17;;;;;;;;;;5052531;28;20753;-66
2022/05/07 08:54:52;;;;;;;20.07;12.93;;;;;;;;;;5052889;28;20174;-67
2022/05/07 08:57:18;;;;;;;19.60;11.67;;;;;;;;;;5055925;28;20194;-64
2022/05/07 08:59:44;;;;;;;15.90;11.17;;;;;;;;;;5038482;28;20260;-66
2022/05/07 09:02:10;;;;;;;21.93;12.50;;;;;;;;;;5038571;28;20187;-66
2022/05/07 09:04:37;;;;;;;16.53;12.00;;;;;;;;;;5038401;28;20269;-66
2022/05/07 09:07:05;;;;;;;19.00;12.10;;;;;;;;;;5056212;28;20194;-66
2022/05/07 09:09:31;;;;;;;15.00;11.47;;;;;;;;;;5038776;28;20185;-66
2022/05/07 09:11:58;;;;;;;18.57;10.60;;;;;;;;;;5056539;28;20186;-66
2022/05/07 09:14:30;;;;;;;13.37;9.10;;;;;;;;;;5038814;28;20217;-66
2022/05/07 09:16:59;;;;;;;13.37;10.53;;;;;;;;;;5037937;28;20301;-67
2022/05/07 09:19:28;;;;;;;13.60;9.70;;;;;;;;;;5056438;28;20214;-66
2022/05/07 09:22:04;;;;;;;13.00;10.00;;;;;;;;;;5056301;28;20198;-66
2022/05/07 09:24:30;;;;;;;12.60;9.00;;;;;;;;;;5038139;28;20184;-66
2022/05/07 09:26:59;;;;;;;14.27;9.20;;;;;;;;;;5056217;28;20198;-65
2022/05/07 09:29:29;;;;;;;16.37;9.80;;;;;;;;;;5038170;28;20182;-66
2022/05/07 09:31:55;;;;;;;14.53;9.40;;;;;;;;;;5038592;28;20598;-66
2022/05/07 09:37:19;;;;;;;13.20;9.43;;;;;;;;;;5055765;28;20290;-65
2022/05/07 09:39:47;;;;;;;10.27;7.93;;;;;;;;;;5037849;28;20178;-66
2022/05/07 09:42:14;;;;;;;12.27;8.07;;;;;;;;;;5055649;28;20528;-66
2022/05/07 09:44:40;;;;;;;10.97;8.70;;;;;;;;;;5055637;28;20217;-65
2022/05/07 09:47:09;;;;;;;13.63;8.90;;;;;;;;;;5037539;28;20206;-66
2022/05/07 09:49:35;;;;;;;12.53;9.20;;;;;;;;;;5055543;28;20181;-65
2022/05/07 09:52:03;;;;;;;13.93;9.27;;;;;;;;;;5055471;28;20174;-65
2022/05/07 09:57:33;;;;;;;14.30;8.77;;;;;;;;;;5055586;28;20233;-65
2022/05/07 10:00:07;;;;;;;10.83;8.53;;;;;;;;;;5055254;28;20159;-65
2022/05/07 10:02:51;;;;;;;11.53;7.83;;;;;;;;;;5037469;28;20224;-65
2022/05/07 10:05:17;;;;;;;13.77;8.47;;;;;;;;;;5055328;28;20174;-65
2022/05/07 10:07:52;;;;;;;14.37;10.10;;;;;;;;;;5036687;28;20289;-65
2022/05/07 10:10:20;;;;;;;13.40;9.03;;;;;;;;;;5055580;28;20208;-65
2022/05/07 10:12:47;;;;;;;12.33;8.43;;;;;;;;;;5055000;28;20229;-65
2022/05/07 10:15:15;;;;;;;15.27;9.87;;;;;;;;;;5055321;28;20710;-66
2022/05/07 10:17:41;;;;;;;19.17;10.10;;;;;;;;;;5054690;28;20214;-65
2022/05/07 10:20:09;;;;;;;16.80;9.70;;;;;;;;;;5037155;28;20186;-65
2022/05/07 10:22:35;;;;;;;15.30;9.50;;;;;;;;;;5055380;28;20635;-65
2022/05/07 10:25:06;;;;;;;13.60;9.23;;;;;;;;;;5039243;28;20183;-65
2022/05/07 10:27:33;;;;;;;14.50;9.13;;;;;;;;;;5057438;28;20209;-65
2022/05/07 10:30:22;;;;;;;15.87;9.07;;;;;;;;;;5039625;28;20289;-65
2022/05/07 10:32:58;;;;;;;11.03;8.30;;;;;;;;;;5056473;28;20217;-67
2022/05/07 10:35:44;;;;;;;13.97;9.07;;;;;;;;;;5036437;28;20178;-65
2022/05/07 10:38:11;;;;;;;13.67;10.70;;;;;;;;;;5054550;28;20650;-66
2022/05/07 10:40:37;;;;;;;12.40;9.23;;;;;;;;;;5036624;28;20178;-66
2022/05/07 10:43:06;;;;;;;12.83;9.63;;;;;;;;;;5054343;28;20210;-66
2022/05/07 10:45:40;;;;;;;13.37;9.90;;;;;;;;;;5054293;28;20225;-65
2022/05/07 10:48:16;;;;;;;19.33;9.93;;;;;;;;;;5054398;28;20182;-66
2022/05/07 10:50:49;;;;;;;16.13;10.33;;;;;;;;;;5054564;28;20524;-66
2022/05/07 10:53:15;;;;;;;15.67;10.77;;;;;;;;;;5054071;28;20194;-66
2022/05/07 10:55:41;;;;;;;15.40;10.50;;;;;;;;;;5054015;28;20286;-66
2022/05/07 10:58:07;;;;;;;15.63;10.70;;;;;;;;;;5036172;28;20179;-65
2022/05/07 11:00:34;;;;;;;15.77;10.40;;;;;;;;;;5053984;28;20181;-66
2022/05/07 11:03:00;;;;;;;12.40;10.03;;;;;;;;;;5054196;28;20178;-65
2022/05/07 11:05:31;;;;;;;13.63;9.90;;;;;;;;;;5053740;28;20186;-65
2022/05/07 11:08:02;;;;;;;14.70;9.70;;;;;;;;;;5053873;28;20185;-66
2022/05/07 11:10:28;;;;;;;11.47;8.87;;;;;;;;;;5054061;28;20543;-66
2022/05/07 11:13:04;;;;;;;13.83;10.17;;;;;;;;;;5053638;28;20206;-66
2022/05/07 11:15:30;;;;;;;18.67;11.57;;;;;;;;;;5054081;28;20216;-66
2022/05/07 11:17:56;;;;;;;17.07;9.83;;;;;;;;;;5053757;28;20179;-66
2022/05/07 11:20:32;;;;;;;16.80;10.87;;;;;;;;;;5052872;28;20658;-66
2022/05/07 11:23:03;;;;;;;14.90;11.03;;;;;;;;;;5035825;28;20182;-66
2022/05/07 11:25:30;;;;;;;17.17;10.97;;;;;;;;;;5053871;28;20179;-65
2022/05/07 11:27:57;;;;;;;14.37;11.03;;;;;;;;;;5077890;22;20271;-67
2022/05/07 11:30:24;;;;;;;17.20;11.50;;;;;;;;;;5055015;28;20163;-68
2022/05/07 11:32:50;;;;;;;15.17;11.00;;;;;;;;;;5036640;28;20698;-67
2022/05/07 11:35:15;;;;;;;14.53;10.90;;;;;;;;;;5054263;28;20171;-67
2022/05/07 11:37:45;;;;;;;14.60;9.97;;;;;;;;;;5053999;28;20565;-67
2022/05/07 11:40:12;;;;;;;15.47;10.30;;;;;;;;;;5054042;28;20202;-66
2022/05/07 11:42:49;;;;;;;14.03;10.93;;;;;;;;;;5053865;28;20255;-67
2022/05/07 11:45:30;;;;;;;14.37;10.67;;;;;;;;;;5035898;28;20189;-67
2022/05/07 11:47:58;;;;;;;12.80;10.23;;;;;;;;;;5054034;28;20566;-67
2022/05/07 11:50:31;;;;;;;15.43;11.03;;;;;;;;;;5036003;28;20629;-67
2022/05/07 11:53:09;;;;;;;13.67;10.50;;;;;;;;;;5054020;28;20198;-68
2022/05/07 11:55:35;;;;;;;14.67;10.73;;;;;;;;;;5054154;28;20603;-66
2022/05/07 11:58:12;;;;;;;13.83;10.70;;;;;;;;;;5053902;28;20281;-67
2022/05/07 12:00:41;;;;;;;15.70;11.27;;;;;;;;;;5054016;28;20158;-66
2022/05/07 12:03:08;;;;;;;14.67;11.60;;;;;;;;;;5035486;28;20666;-69
2022/05/07 12:05:40;;;;;;;16.20;10.97;;;;;;;;;;5053866;28;20261;-67
2022/05/07 12:08:16;;;;;;;15.33;11.03;;;;;;;;;;5053480;28;20197;-68
2022/05/07 12:10:43;;;;;;;13.60;11.40;;;;;;;;;;5053517;28;20166;-67
2022/05/07 12:13:10;;;;;;;13.73;10.60;;;;;;;;;;5035655;28;20276;-67
2022/05/07 12:18:21;;;;;;;17.33;11.20;;;;;;;;;;5053493;28;20241;-68
2022/05/07 12:20:47;;;;;;;15.40;11.70;;;;;;;;;;5035419;28;20182;-66
2022/05/07 12:31:27;;;;;;;15.47;11.00;;;;;;;;;;5055703;28;20650;-68
2022/05/07 12:33:53;;;;;;;12.87;10.40;;;;;;;;;;5057483;28;20697;-67
2022/05/07 12:36:19;;;;;;;15.60;11.83;;;;;;;;;;5057432;28;20179;-67
2022/05/07 12:38:45;;;;;;;14.37;10.63;;;;;;;;;;5057158;28;20198;-69
2022/05/07 12:41:12;;;;;;;13.07;9.67;;;;;;;;;;5057439;28;20179;-67
2022/05/07 12:43:39;;;;;;;11.00;8.87;;;;;;;;;;5057252;28;20206;-67
2022/05/07 12:46:04;;;;;;;9.33;7.27;;;;;;;;;;5039466;28;20187;-73
2022/05/07 12:48:31;;;;;;;11.80;7.83;;;;;;;;;;5057610;28;20697;-68
2022/05/07 12:50:57;;;;;;;11.97;7.40;;;;;;;;;;5057094;28;20228;-68
2022/05/07 12:53:23;;;;;;;9.50;8.00;;;;;;;;;;5056870;28;20202;-69
2022/05/07 12:55:49;;;;;;;8.67;7.27;;;;;;;;;;5057002;28;20178;-68
2022/05/07 12:58:15;;;;;;;11.10;8.30;;;;;;;;;;5057029;28;20202;-67
2022/05/07 13:00:42;;;;;;;11.33;9.27;;;;;;;;;;5056740;28;20174;-68
2022/05/07 13:03:08;;;;;;;12.57;8.33;;;;;;;;;;5056430;28;20178;-68
2022/05/07 13:05:35;;;;;;;11.33;6.80;;;;;;;;;;5056753;28;20178;-68
2022/05/07 13:08:01;;;;;;;6.97;5.97;;;;;;;;;;5056453;28;20202;-68
2022/05/07 13:10:28;;;;;;;9.43;6.57;;;;;;;;;;5038595;28;20190;-67
2022/05/07 13:12:54;;;;;;;10.43;7.30;;;;;;;;;;5056435;28;20221;-68
2022/05/07 13:15:20;;;;;;;12.77;8.53;;;;;;;;;;5056734;28;20200;-68
2022/05/07 13:17:46;;;;;;;8.17;7.23;;;;;;;;;;5056338;28;20642;-67
2022/05/07 13:20:12;;;;;;;9.83;7.23;;;;;;;;;;5056869;28;20619;-69
2022/05/07 13:22:38;;;;;;;9.93;8.00;;;;;;;;;;5056522;28;20179;-72
2022/05/07 13:25:05;;;;;;;11.83;9.17;;;;;;;;;;5056171;28;20171;-68
2022/05/07 13:27:31;;;;;;;10.43;8.23;;;;;;;;;;5038180;28;20264;-68
2022/05/07 13:29:57;;;;;;;8.60;7.70;;;;;;;;;;5056066;28;20217;-69
2022/05/07 13:32:23;;;;;;;9.33;7.83;;;;;;;;;;5038292;28;20600;-68
2022/05/07 13:34:49;;;;;;;9.97;7.83;;;;;;;;;;5037954;28;20249;-70
2022/05/07 13:37:16;;;;;;;7.40;6.70;;;;;;;;;;5056910;28;20207;-68
2022/05/07 13:39:42;;;;;;;6.57;5.87;;;;;;;;;;5055908;28;20586;-68
2022/05/07 13:42:08;;;;;;;12.43;7.83;;;;;;;;;;5037237;28;20182;-68
2022/05/07 13:44:37;;;;;;;11.20;7.37;;;;;;;;;;5055914;28;20202;-67
2022/05/07 13:47:03;;;;;;;10.40;7.10;;;;;;;;;;5055820;28;20217;-68
2022/05/07 13:49:29;;;;;;;9.47;6.30;;;;;;;;;;5055774;28;20240;-68
2022/05/07 13:51:58;;;;;;;8.23;5.87;;;;;;;;;;5056069;28;20641;-68
2022/05/07 13:54:24;;;;;;;9.23;5.93;;;;;;;;;;5055804;28;20226;-68
2022/05/07 13:56:50;;;;;;;9.43;6.37;;;;;;;;;;5037809;28;20175;-68
2022/05/07 13:59:16;;;;;;;7.70;5.47;;;;;;;;;;5038039;28;20565;-68
2022/05/07 14:01:42;;;;;;;11.20;8.57;;;;;;;;;;5055637;28;20185;-68
2022/05/07 14:04:08;;;;;;;14.13;11.70;;;;;;;;;;5056229;28;20187;-67
2022/05/07 14:06:34;;;;;;;13.77;11.47;;;;;;;;;;5055753;28;20186;-68
2022/05/07 14:09:00;;;;;;;18.23;13.43;;;;;;;;;;5055555;28;20608;-67
2022/05/07 14:11:26;;;;;;;15.80;12.67;;;;;;;;;;5055663;28;20622;-68
2022/05/07 14:13:52;;;;;;;14.47;10.87;;;;;;;;;;5055551;28;20274;-67
2022/05/07 14:16:18;;;;;;;12.70;10.20;;;;;;;;;;5037695;28;20281;-67
2022/05/07 14:18:44;;;;;;;12.27;9.57;;;;;;;;;;5055038;28;20194;-68
2022/05/07 14:21:11;;;;;;;13.13;10.17;;;;;;;;;;5055044;28;20175;-68
2022/05/07 14:23:37;;;;;;;10.53;9.40;;;;;;;;;;5055702;28;20174;-67
2022/05/07 14:26:04;;;;;;;11.73;9.03;;;;;;;;;;5037268;28;20210;-68
2022/05/07 14:28:30;;;;;;;10.97;8.93;;;;;;;;;;5055229;28;20206;-66
2022/05/07 14:30:59;;;;;;;12.47;9.57;;;;;;;;;;5037039;28;20651;-67
2022/05/07 14:33:25;;;;;;;12.77;10.10;;;;;;;;;;5036896;28;20202;-68
2022/05/07 14:35:52;;;;;;;12.53;9.93;;;;;;;;;;5054969;28;20181;-67
2022/05/07 14:38:19;;;;;;;11.10;9.53;;;;;;;;;;5054905;28;20217;-68
2022/05/07 14:40:45;;;;;;;15.27;9.87;;;;;;;;;;5055051;28;20646;-67
2022/05/07 14:43:11;;;;;;;9.47;7.77;;;;;;;;;;5037061;28;20186;-68
2022/05/07 14:45:37;;;;;;;10.87;8.90;;;;;;;;;;5054814;28;20264;-69
2022/05/07 14:48:03;;;;;;;9.60;7.97;;;;;;;;;;5054707;28;20226;-68
2022/05/07 14:50:29;;;;;;;7.93;6.27;;;;;;;;;;5036884;28;20714;-68
2022/05/07 14:52:56;;;;;;;10.33;7.70;;;;;;;;;;5054245;28;20210;-68
2022/05/07 14:55:22;;;;;;;10.43;7.63;;;;;;;;;;5054234;28;20642;-67
2022/05/07 14:57:49;;;;;;;10.73;7.97;;;;;;;;;;5036705;28;20179;-68